sensor_id;sensor_type;location;lat;lon;timestamp;pressure;altitude;pressure_sealevel;temperature;humidity
34658;BME280;20865;43.312;27.152;2023-04-01T00:01:07;99654.17;;;13.64;42.56
34658;BME280;20865;43.312;27.152;2023-04-01T00:03:34;99644.93;;;13.61;42.64
34658;BME280;20865;43.312;27.152;2023-04-01T00:06:01;99645.64;;;13.65;42.68
34658;BME280;20865;43.312;27.152;2023-04-01T00:08:28;99641.99;;;13.66;42.79
34658;BME280;20865;43.312;27.152;2023-04-01T00:10:55;99641.45;;;13.68;42.87
34658;BME280;20865;43.312;27.152;2023-04-01T00:13:22;99639.95;;;13.62;43.09
34658;BME280;20865;43.312;27.152;2023-04-01T00:15:51;99637.27;;;13.62;41.49
34658;BME280;20865;43.312;27.152;2023-04-01T00:18:18;99643.20;;;13.60;41.98
34658;BME280;20865;43.312;27.152;2023-04-01T00:20:45;99636.17;;;13.49;42.59
34658;BME280;20865;43.312;27.152;2023-04-01T00:23:13;99628.05;;;13.50;43.40
34658;BME280;20865;43.312;27.152;2023-04-01T00:25:40;99623.17;;;13.50;43.14
34658;BME280;20865;43.312;27.152;2023-04-01T00:28:07;99615.44;;;13.44;42.17
34658;BME280;20865;43.312;27.152;2023-04-01T00:30:35;99610.45;;;13.45;41.98
34658;BME280;20865;43.312;27.152;2023-04-01T00:33:02;99608.73;;;13.44;41.82
34658;BME280;20865;43.312;27.152;2023-04-01T00:35:29;99611.81;;;13.36;42.14
34658;BME280;20865;43.312;27.152;2023-04-01T00:37:56;99616.70;;;13.37;42.19
34658;BME280;20865;43.312;27.152;2023-04-01T00:40:28;99608.33;;;13.34;42.26
34658;BME280;20865;43.312;27.152;2023-04-01T00:42:51;99609.92;;;13.29;42.83
34658;BME280;20865;43.312;27.152;2023-04-01T00:45:23;99611.11;;;13.32;42.89
34658;BME280;20865;43.312;27.152;2023-04-01T00:47:49;99608.36;;;13.25;42.32
34658;BME280;20865;43.312;27.152;2023-04-01T00:50:16;99611.33;;;13.28;42.29
34658;BME280;20865;43.312;27.152;2023-04-01T00:52:43;99623.97;;;13.26;42.34
34658;BME280;20865;43.312;27.152;2023-04-01T00:55:09;99612.37;;;13.25;42.40
34658;BME280;20865;43.312;27.152;2023-04-01T00:57:38;99603.80;;;13.17;41.94
34658;BME280;20865;43.312;27.152;2023-04-01T01:00:06;99598.59;;;13.14;42.03
34658;BME280;20865;43.312;27.152;2023-04-01T01:02:35;99595.39;;;13.07;42.01
34658;BME280;20865;43.312;27.152;2023-04-01T01:05:01;99597.52;;;13.01;42.23
34658;BME280;20865;43.312;27.152;2023-04-01T01:15:26;99591.97;;;13.04;43.19
34658;BME280;20865;43.312;27.152;2023-04-01T01:20:33;99585.67;;;12.96;42.28
34658;BME280;20865;43.312;27.152;2023-04-01T01:23:04;99582.37;;;12.91;42.25
34658;BME280;20865;43.312;27.152;2023-04-01T01:25:32;99577.07;;;12.90;42.32
34658;BME280;20865;43.312;27.152;2023-04-01T01:28:03;99581.24;;;12.86;42.47
34658;BME280;20865;43.312;27.152;2023-04-01T01:31:28;99582.77;;;12.83;43.01
34658;BME280;20865;43.312;27.152;2023-04-01T01:33:17;99587.55;;;12.85;43.06
34658;BME280;20865;43.312;27.152;2023-04-01T01:36:00;99585.59;;;12.89;43.32
34658;BME280;20865;43.312;27.152;2023-04-01T01:38:14;99580.95;;;12.84;43.27
34658;BME280;20865;43.312;27.152;2023-04-01T01:40:42;99583.30;;;12.81;42.43
34658;BME280;20865;43.312;27.152;2023-04-01T01:43:10;99576.60;;;12.81;42.42
34658;BME280;20865;43.312;27.152;2023-04-01T01:45:39;99571.23;;;12.81;42.50
34658;BME280;20865;43.312;27.152;2023-04-01T01:48:06;99570.44;;;12.79;42.87
34658;BME280;20865;43.312;27.152;2023-04-01T01:50:34;99575.80;;;12.79;42.74
34658;BME280;20865;43.312;27.152;2023-04-01T01:53:06;99576.22;;;12.80;42.51
34658;BME280;20865;43.312;27.152;2023-04-01T01:55:37;99573.36;;;12.75;42.42
34658;BME280;20865;43.312;27.152;2023-04-01T01:58:05;99569.73;;;12.67;42.41
34658;BME280;20865;43.312;27.152;2023-04-01T02:00:33;99555.95;;;12.66;42.33
34658;BME280;20865;43.312;27.152;2023-04-01T02:03:01;99553.77;;;12.47;42.53
34658;BME280;20865;43.312;27.152;2023-04-01T02:05:28;99547.94;;;12.47;43.08
34658;BME280;20865;43.312;27.152;2023-04-01T02:08:01;99550.30;;;12.45;43.63
34658;BME280;20865;43.312;27.152;2023-04-01T02:10:27;99552.25;;;12.41;43.72
34658;BME280;20865;43.312;27.152;2023-04-01T02:12:56;99546.06;;;12.49;43.32
34658;BME280;20865;43.312;27.152;2023-04-01T02:15:23;99549.13;;;12.50;43.43
34658;BME280;20865;43.312;27.152;2023-04-01T02:17:52;99547.61;;;12.45;43.45
34658;BME280;20865;43.312;27.152;2023-04-01T02:20:19;99545.50;;;12.43;43.55
34658;BME280;20865;43.312;27.152;2023-04-01T02:22:52;99547.80;;;12.50;43.02
34658;BME280;20865;43.312;27.152;2023-04-01T02:25:16;99554.58;;;12.49;42.62
34658;BME280;20865;43.312;27.152;2023-04-01T02:27:43;99549.38;;;12.46;42.80
34658;BME280;20865;43.312;27.152;2023-04-01T02:30:11;99545.74;;;12.47;42.65
34658;BME280;20865;43.312;27.152;2023-04-01T02:32:39;99544.94;;;12.45;42.36
34658;BME280;20865;43.312;27.152;2023-04-01T02:35:11;99534.16;;;12.46;42.14
34658;BME280;20865;43.312;27.152;2023-04-01T02:37:36;99529.58;;;12.39;42.42
34658;BME280;20865;43.312;27.152;2023-04-01T02:40:05;99526.42;;;12.40;42.73
34658;BME280;20865;43.312;27.152;2023-04-01T02:42:33;99512.41;;;12.35;42.74
34658;BME280;20865;43.312;27.152;2023-04-01T02:45:01;99512.70;;;12.37;42.70
34658;BME280;20865;43.312;27.152;2023-04-01T02:47:28;99508.30;;;12.36;42.58
34658;BME280;20865;43.312;27.152;2023-04-01T02:49:55;99503.56;;;12.33;42.66
34658;BME280;20865;43.312;27.152;2023-04-01T02:52:24;99501.75;;;12.33;42.84
34658;BME280;20865;43.312;27.152;2023-04-01T02:54:51;99494.58;;;12.34;42.98
34658;BME280;20865;43.312;27.152;2023-04-01T02:57:17;99504.28;;;12.36;43.09
34658;BME280;20865;43.312;27.152;2023-04-01T02:59:44;99492.38;;;12.33;42.73
34658;BME280;20865;43.312;27.152;2023-04-01T03:02:11;99493.42;;;12.31;42.50
34658;BME280;20865;43.312;27.152;2023-04-01T03:04:38;99476.08;;;12.29;42.46
34658;BME280;20865;43.312;27.152;2023-04-01T03:07:05;99475.45;;;12.24;42.59
34658;BME280;20865;43.312;27.152;2023-04-01T03:09:32;99466.08;;;12.24;42.49
34658;BME280;20865;43.312;27.152;2023-04-01T03:11:59;99466.94;;;12.25;42.48
34658;BME280;20865;43.312;27.152;2023-04-01T03:14:25;99463.55;;;12.21;42.50
34658;BME280;20865;43.312;27.152;2023-04-01T03:16:52;99472.98;;;12.20;42.60
34658;BME280;20865;43.312;27.152;2023-04-01T03:19:19;99463.13;;;12.20;42.72
34658;BME280;20865;43.312;27.152;2023-04-01T03:21:46;99473.22;;;12.15;42.83
34658;BME280;20865;43.312;27.152;2023-04-01T03:24:13;99469.59;;;12.16;42.96
34658;BME280;20865;43.312;27.152;2023-04-01T03:26:40;99467.33;;;12.17;42.67
34658;BME280;20865;43.312;27.152;2023-04-01T03:29:06;99464.14;;;12.09;42.85
34658;BME280;20865;43.312;27.152;2023-04-01T03:31:33;99461.47;;;12.09;42.74
34658;BME280;20865;43.312;27.152;2023-04-01T03:34:01;99460.61;;;12.08;42.90
34658;BME280;20865;43.312;27.152;2023-04-01T03:36:27;99453.59;;;12.06;42.90
34658;BME280;20865;43.312;27.152;2023-04-01T03:38:54;99441.24;;;12.03;43.16
34658;BME280;20865;43.312;27.152;2023-04-01T03:41:21;99445.97;;;12.07;43.17
34658;BME280;20865;43.312;27.152;2023-04-01T03:43:48;99456.59;;;12.08;43.02
34658;BME280;20865;43.312;27.152;2023-04-01T03:46:18;99442.34;;;12.08;43.03
34658;BME280;20865;43.312;27.152;2023-04-01T03:48:45;99447.37;;;12.05;42.89
34658;BME280;20865;43.312;27.152;2023-04-01T03:51:12;99454.06;;;12.05;42.49
34658;BME280;20865;43.312;27.152;2023-04-01T03:53:39;99454.06;;;12.05;42.53
34658;BME280;20865;43.312;27.152;2023-04-01T03:56:06;99456.73;;;11.97;42.43
34658;BME280;20865;43.312;27.152;2023-04-01T03:58:34;99454.77;;;12.00;42.74
34658;BME280;20865;43.312;27.152;2023-04-01T04:01:00;99451.14;;;12.01;42.89
34658;BME280;20865;43.312;27.152;2023-04-01T04:03:27;99447.04;;;12.03;42.94
34658;BME280;20865;43.312;27.152;2023-04-01T04:05:54;99443.50;;;12.02;42.73
34658;BME280;20865;43.312;27.152;2023-04-01T04:08:22;99443.11;;;12.01;42.79
34658;BME280;20865;43.312;27.152;2023-04-01T04:10:54;99455.07;;;12.03;43.06
34658;BME280;20865;43.312;27.152;2023-04-01T04:13:17;99455.73;;;12.08;43.16
34658;BME280;20865;43.312;27.152;2023-04-01T04:15:43;99450.28;;;12.09;43.11
34658;BME280;20865;43.312;27.152;2023-04-01T04:18:10;99453.59;;;12.06;43.29
34658;BME280;20865;43.312;27.152;2023-04-01T04:20:43;99452.52;;;12.10;43.34
34658;BME280;20865;43.312;27.152;2023-04-01T04:23:05;99451.95;;;12.12;43.19
34658;BME280;20865;43.312;27.152;2023-04-01T04:25:32;99441.72;;;12.11;43.20
34658;BME280;20865;43.312;27.152;2023-04-01T04:27:59;99447.31;;;12.15;43.29
34658;BME280;20865;43.312;27.152;2023-04-01T04:30:26;99442.52;;;12.22;43.26
34658;BME280;20865;43.312;27.152;2023-04-01T04:32:53;99438.36;;;12.43;43.44
34658;BME280;20865;43.312;27.152;2023-04-01T04:35:19;99436.14;;;12.51;43.32
34658;BME280;20865;43.312;27.152;2023-04-01T04:37:46;99433.31;;;12.54;43.21
34658;BME280;20865;43.312;27.152;2023-04-01T04:40:13;99431.36;;;12.49;43.44
34658;BME280;20865;43.312;27.152;2023-04-01T04:42:40;99433.86;;;12.43;43.63
34658;BME280;20865;43.312;27.152;2023-04-01T04:45:07;99431.36;;;12.49;43.69
34658;BME280;20865;43.312;27.152;2023-04-01T04:47:34;99424.23;;;12.48;43.84
34658;BME280;20865;43.312;27.152;2023-04-01T04:50:01;99435.53;;;12.46;44.04
34658;BME280;20865;43.312;27.152;2023-04-01T04:52:28;99422.14;;;12.46;44.38
34658;BME280;20865;43.312;27.152;2023-04-01T04:54:54;99420.88;;;12.53;44.65
34658;BME280;20865;43.312;27.152;2023-04-01T04:57:21;99421.02;;;12.50;44.77
34658;BME280;20865;43.312;27.152;2023-04-01T04:59:48;99422.44;;;12.57;44.76
34658;BME280;20865;43.312;27.152;2023-04-01T05:02:15;99421.02;;;12.67;44.75
34658;BME280;20865;43.312;27.152;2023-04-01T05:04:42;99414.77;;;12.75;44.68
34658;BME280;20865;43.312;27.152;2023-04-01T05:07:09;99409.19;;;12.80;44.88
34658;BME280;20865;43.312;27.152;2023-04-01T05:09:36;99414.61;;;12.87;45.04
34658;BME280;20865;43.312;27.152;2023-04-01T05:12:02;99414.31;;;13.00;45.08
34658;BME280;20865;43.312;27.152;2023-04-01T05:14:29;99411.63;;;13.09;45.21
34658;BME280;20865;43.312;27.152;2023-04-01T05:16:56;99413.34;;;13.19;45.49
34658;BME280;20865;43.312;27.152;2023-04-01T05:19:23;99412.66;;;13.40;45.55
34658;BME280;20865;43.312;27.152;2023-04-01T05:21:50;99415.27;;;13.57;45.62
34658;BME280;20865;43.312;27.152;2023-04-01T05:24:18;99402.41;;;13.71;45.73
34658;BME280;20865;43.312;27.152;2023-04-01T05:26:45;99394.43;;;13.85;46.08
34658;BME280;20865;43.312;27.152;2023-04-01T05:29:12;99389.68;;;13.97;46.22
34658;BME280;20865;43.312;27.152;2023-04-01T05:31:38;99391.08;;;14.12;46.23
34658;BME280;20865;43.312;27.152;2023-04-01T05:34:05;99392.88;;;14.27;46.05
34658;BME280;20865;43.312;27.152;2023-04-01T05:36:32;99393.09;;;14.38;45.84
34658;BME280;20865;43.312;27.152;2023-04-01T05:38:59;99383.22;;;14.46;45.92
34658;BME280;20865;43.312;27.152;2023-04-01T05:41:26;99383.37;;;14.51;45.95
34658;BME280;20865;43.312;27.152;2023-04-01T05:43:53;99386.45;;;14.60;45.75
34658;BME280;20865;43.312;27.152;2023-04-01T05:46:20;99382.34;;;14.61;45.90
34658;BME280;20865;43.312;27.152;2023-04-01T05:48:47;99391.08;;;14.65;46.06
34658;BME280;20865;43.312;27.152;2023-04-01T05:51:14;99378.77;;;14.68;46.09
34658;BME280;20865;43.312;27.152;2023-04-01T05:53:41;99381.95;;;14.74;46.20
34658;BME280;20865;43.312;27.152;2023-04-01T05:56:10;99381.38;;;14.76;46.29
34658;BME280;20865;43.312;27.152;2023-04-01T05:58:37;99384.27;;;14.81;46.13
34658;BME280;20865;43.312;27.152;2023-04-01T06:01:05;99381.77;;;14.85;46.20
34658;BME280;20865;43.312;27.152;2023-04-01T06:03:32;99380.72;;;14.87;46.27
34658;BME280;20865;43.312;27.152;2023-04-01T06:05:59;99374.66;;;14.91;46.44
34658;BME280;20865;43.312;27.152;2023-04-01T06:08:26;99369.66;;;14.99;46.61
34658;BME280;20865;43.312;27.152;2023-04-01T06:13:48;99363.23;;;15.09;46.96
34658;BME280;20865;43.312;27.152;2023-04-01T06:18:59;99354.88;;;15.20;46.97
34658;BME280;20865;43.312;27.152;2023-04-01T06:26:39;99347.51;;;15.44;46.99
34658;BME280;20865;43.312;27.152;2023-04-01T06:34:52;99333.81;;;15.68;47.22
34658;BME280;20865;43.312;27.152;2023-04-01T06:36:39;99330.90;;;15.79;47.17
34658;BME280;20865;43.312;27.152;2023-04-01T06:44:14;99320.05;;;16.33;47.44
34658;BME280;20865;43.312;27.152;2023-04-01T06:46:45;99316.70;;;16.42;47.06
34658;BME280;20865;43.312;27.152;2023-04-01T06:49:29;99315.08;;;16.52;46.74
34658;BME280;20865;43.312;27.152;2023-04-01T06:51:59;99308.29;;;16.59;46.55
34658;BME280;20865;43.312;27.152;2023-04-01T06:54:26;99315.22;;;16.63;46.38
34658;BME280;20865;43.312;27.152;2023-04-01T06:56:54;99321.99;;;16.69;46.26
34658;BME280;20865;43.312;27.152;2023-04-01T06:59:25;99322.09;;;16.75;45.93
34658;BME280;20865;43.312;27.152;2023-04-01T07:01:52;99319.61;;;16.84;45.98
34658;BME280;20865;43.312;27.152;2023-04-01T07:04:32;99323.47;;;16.93;46.14
34658;BME280;20865;43.312;27.152;2023-04-01T07:07:01;99321.84;;;17.03;46.25
34658;BME280;20865;43.312;27.152;2023-04-01T07:09:30;99325.81;;;17.10;46.53
34658;BME280;20865;43.312;27.152;2023-04-01T07:11:56;99322.68;;;17.17;46.44
34658;BME280;20865;43.312;27.152;2023-04-01T07:14:25;99322.61;;;17.24;46.38
34658;BME280;20865;43.312;27.152;2023-04-01T07:16:59;99325.23;;;17.31;46.66
34658;BME280;20865;43.312;27.152;2023-04-01T07:19:28;99327.91;;;17.44;46.57
34658;BME280;20865;43.312;27.152;2023-04-01T07:21:56;99311.72;;;17.49;47.67
34658;BME280;20865;43.312;27.152;2023-04-01T07:24:31;99314.28;;;17.88;47.64
34658;BME280;20865;43.312;27.152;2023-04-01T07:26:57;99320.03;;;18.07;47.38
34658;BME280;20865;43.312;27.152;2023-04-01T07:29:24;99319.05;;;18.60;47.54
34658;BME280;20865;43.312;27.152;2023-04-01T07:34:23;99309.14;;;19.22;45.34
34658;BME280;20865;43.312;27.152;2023-04-01T07:36:48;99313.28;;;19.38;44.81
34658;BME280;20865;43.312;27.152;2023-04-01T07:39:28;99307.77;;;19.39;44.52
34658;BME280;20865;43.312;27.152;2023-04-01T07:52:21;99291.23;;;19.54;44.24
34658;BME280;20865;43.312;27.152;2023-04-01T07:54:46;99299.61;;;19.50;44.80
34658;BME280;20865;43.312;27.152;2023-04-01T07:59:45;99290.48;;;19.63;45.10
34658;BME280;20865;43.312;27.152;2023-04-01T08:05:13;99285.70;;;19.93;45.50
34658;BME280;20865;43.312;27.152;2023-04-01T08:07:43;99282.81;;;20.06;44.81
34658;BME280;20865;43.312;27.152;2023-04-01T08:10:22;99280.20;;;20.10;44.51
34658;BME280;20865;43.312;27.152;2023-04-01T08:15:56;99264.68;;;20.12;44.36
34658;BME280;20865;43.312;27.152;2023-04-01T08:20:59;99270.72;;;20.10;44.55
34658;BME280;20865;43.312;27.152;2023-04-01T08:23:27;99261.34;;;20.08;44.77
34658;BME280;20865;43.312;27.152;2023-04-01T08:26:01;99266.24;;;20.14;44.73
34658;BME280;20865;43.312;27.152;2023-04-01T08:28:30;99250.95;;;20.19;44.63
34658;BME280;20865;43.312;27.152;2023-04-01T08:31:14;99255.54;;;20.34;44.65
34658;BME280;20865;43.312;27.152;2023-04-01T08:33:41;99259.38;;;20.46;44.08
34658;BME280;20865;43.312;27.152;2023-04-01T08:36:14;99259.47;;;20.56;43.66
34658;BME280;20865;43.312;27.152;2023-04-01T08:38:44;99259.09;;;20.61;42.69
34658;BME280;20865;43.312;27.152;2023-04-01T09:00:50;99250.12;;;20.85;42.18
34658;BME280;20865;43.312;27.152;2023-04-01T09:07:45;99248.74;;;21.01;42.17
34658;BME280;20865;43.312;27.152;2023-04-01T09:13:04;99239.67;;;21.06;40.75
34658;BME280;20865;43.312;27.152;2023-04-01T09:23:32;99215.16;;;21.02;40.79
34658;BME280;20865;43.312;27.152;2023-04-01T09:26:06;99204.88;;;20.96;40.46
34658;BME280;20865;43.312;27.152;2023-04-01T09:38:56;99188.87;;;21.02;41.03
34658;BME280;20865;43.312;27.152;2023-04-01T09:41:30;99182.59;;;21.02;40.95
34658;BME280;20865;43.312;27.152;2023-04-01T09:44:01;99186.30;;;21.01;41.11
34658;BME280;20865;43.312;27.152;2023-04-01T10:10:46;99150.67;;;21.00;41.86
34658;BME280;20865;43.312;27.152;2023-04-01T10:23:29;99124.87;;;21.00;40.74
34658;BME280;20865;43.312;27.152;2023-04-01T10:36:33;99110.73;;;21.15;40.16
34658;BME280;20865;43.312;27.152;2023-04-01T10:57:41;99077.81;;;21.44;40.23
34658;BME280;20865;43.312;27.152;2023-04-01T11:05:42;99070.94;;;21.82;38.19
34658;BME280;20865;43.312;27.152;2023-04-01T11:13:26;99076.64;;;22.12;38.73
34658;BME280;20865;43.312;27.152;2023-04-01T11:24:13;99054.72;;;22.51;38.34
34658;BME280;20865;43.312;27.152;2023-04-01T11:32:26;99052.54;;;22.69;37.71
34658;BME280;20865;43.312;27.152;2023-04-01T11:36:55;99044.55;;;22.99;38.13
34658;BME280;20865;43.312;27.152;2023-04-01T11:44:36;99028.16;;;23.57;37.05
34658;BME280;20865;43.312;27.152;2023-04-01T11:49:41;99025.92;;;23.74;36.63
34658;BME280;20865;43.312;27.152;2023-04-01T11:57:35;99024.80;;;24.15;36.25
34658;BME280;20865;43.312;27.152;2023-04-01T12:00:01;99009.27;;;24.11;35.50
34658;BME280;20865;43.312;27.152;2023-04-01T12:05:19;99006.86;;;24.08;35.39
34658;BME280;20865;43.312;27.152;2023-04-01T12:07:53;99006.86;;;24.08;35.35
34658;BME280;20865;43.312;27.152;2023-04-01T12:18:10;99006.08;;;23.86;35.49
34658;BME280;20865;43.312;27.152;2023-04-01T12:20:55;98994.43;;;23.75;35.19
34658;BME280;20865;43.312;27.152;2023-04-01T12:23:08;98990.13;;;23.69;35.44
34658;BME280;20865;43.312;27.152;2023-04-01T12:30:51;98951.82;;;23.48;35.62
34658;BME280;20865;43.312;27.152;2023-04-01T12:38:31;98970.02;;;23.44;36.09
34658;BME280;20865;43.312;27.152;2023-04-01T12:41:32;98969.19;;;23.47;36.55
34658;BME280;20865;43.312;27.152;2023-04-01T12:46:46;98968.89;;;23.81;37.14
34658;BME280;20865;43.312;27.152;2023-04-01T12:56:32;98945.80;;;24.47;34.80
34658;BME280;20865;43.312;27.152;2023-04-01T12:59:11;98942.10;;;24.69;34.96
34658;BME280;20865;43.312;27.152;2023-04-01T13:09:50;98925.01;;;25.40;34.59
34658;BME280;20865;43.312;27.152;2023-04-01T13:14:47;98927.52;;;25.58;34.53
34658;BME280;20865;43.312;27.152;2023-04-01T13:17:17;98916.44;;;25.60;34.71
34658;BME280;20865;43.312;27.152;2023-04-01T13:19:47;98929.60;;;25.56;35.05
34658;BME280;20865;43.312;27.152;2023-04-01T13:22:20;98918.11;;;25.65;35.61
34658;BME280;20865;43.312;27.152;2023-04-01T13:25:05;98920.30;;;25.78;35.33
34658;BME280;20865;43.312;27.152;2023-04-01T13:29:43;98907.30;;;25.88;34.98
34658;BME280;20865;43.312;27.152;2023-04-01T13:32:12;98907.66;;;25.77;34.94
34658;BME280;20865;43.312;27.152;2023-04-01T13:34:39;98890.48;;;25.48;36.42
34658;BME280;20865;43.312;27.152;2023-04-01T13:44:48;98888.08;;;25.57;35.62
34658;BME280;20865;43.312;27.152;2023-04-01T14:03:13;98880.84;;;25.12;35.30
34658;BME280;20865;43.312;27.152;2023-04-01T14:05:46;98878.25;;;25.03;35.26
34658;BME280;20865;43.312;27.152;2023-04-01T14:10:43;98863.09;;;24.59;35.73
34658;BME280;20865;43.312;27.152;2023-04-01T14:18:21;98857.27;;;25.07;36.04
34658;BME280;20865;43.312;27.152;2023-04-01T14:20:53;98846.70;;;25.00;35.08
34658;BME280;20865;43.312;27.152;2023-04-01T14:31:00;98823.47;;;25.04;36.07
34658;BME280;20865;43.312;27.152;2023-04-01T14:38:54;98835.80;;;24.80;37.10
34658;BME280;20865;43.312;27.152;2023-04-01T14:49:28;98821.82;;;24.62;37.18
34658;BME280;20865;43.312;27.152;2023-04-01T14:51:52;98806.44;;;24.61;37.09
34658;BME280;20865;43.312;27.152;2023-04-01T14:54:19;98804.41;;;24.76;37.29
34658;BME280;20865;43.312;27.152;2023-04-01T14:56:51;98804.25;;;24.48;38.14
34658;BME280;20865;43.312;27.152;2023-04-01T15:04:33;98793.48;;;24.63;37.98
34658;BME280;20865;43.312;27.152;2023-04-01T15:12:17;98781.86;;;24.78;37.56
34658;BME280;20865;43.312;27.152;2023-04-01T15:22:30;98755.29;;;24.59;38.16
34658;BME280;20865;43.312;27.152;2023-04-01T15:25:06;98748.80;;;24.56;38.48
34658;BME280;20865;43.312;27.152;2023-04-01T15:38:05;98724.94;;;24.13;35.64
34658;BME280;20865;43.312;27.152;2023-04-01T15:40:31;98731.91;;;24.12;35.34
34658;BME280;20865;43.312;27.152;2023-04-01T15:43:13;98734.31;;;24.07;35.24
34658;BME280;20865;43.312;27.152;2023-04-01T15:45:55;98745.19;;;23.98;35.42
34658;BME280;20865;43.312;27.152;2023-04-01T15:48:31;98752.34;;;23.91;35.57
34658;BME280;20865;43.312;27.152;2023-04-01T15:58:38;98766.81;;;23.71;36.98
34658;BME280;20865;43.312;27.152;2023-04-01T16:03:34;98779.79;;;23.90;37.14
34658;BME280;20865;43.312;27.152;2023-04-01T16:06:01;98781.67;;;23.93;37.37
34658;BME280;20865;43.312;27.152;2023-04-01T16:11:08;98779.79;;;23.90;37.65
34658;BME280;20865;43.312;27.152;2023-04-01T16:16:27;98775.33;;;23.81;37.85
34658;BME280;20865;43.312;27.152;2023-04-01T16:27:02;98786.55;;;23.69;38.39
34658;BME280;20865;43.312;27.152;2023-04-01T16:29:40;98792.80;;;23.53;38.67
34658;BME280;20865;43.312;27.152;2023-04-01T16:32:19;98794.81;;;23.51;38.41
34658;BME280;20865;43.312;27.152;2023-04-01T16:37:33;98804.29;;;23.39;38.59
34658;BME280;20865;43.312;27.152;2023-04-01T16:42:51;98800.58;;;23.44;38.64
34658;BME280;20865;43.312;27.152;2023-04-01T16:45:29;98793.50;;;23.25;38.80
34658;BME280;20865;43.312;27.152;2023-04-01T16:47:57;98790.11;;;23.23;38.70
34658;BME280;20865;43.312;27.152;2023-04-01T16:50:27;98793.18;;;23.28;38.67
34658;BME280;20865;43.312;27.152;2023-04-01T16:58:05;98793.97;;;23.13;39.82
34658;BME280;20865;43.312;27.152;2023-04-01T17:00:39;98793.12;;;23.12;40.63
34658;BME280;20865;43.312;27.152;2023-04-01T17:08:17;98924.89;;;22.97;42.86
34658;BME280;20865;43.312;27.152;2023-04-01T17:11:45;98938.27;;;22.73;42.03
34658;BME280;20865;43.312;27.152;2023-04-01T17:13:29;98940.28;;;22.67;42.25
34658;BME280;20865;43.312;27.152;2023-04-01T17:18:48;98933.70;;;22.24;44.43
34658;BME280;20865;43.312;27.152;2023-04-01T17:21:16;98921.62;;;21.95;44.78
34658;BME280;20865;43.312;27.152;2023-04-01T17:31:20;98922.77;;;20.75;48.28
34658;BME280;20865;43.312;27.152;2023-04-01T17:33:48;98910.39;;;20.66;48.43
34658;BME280;20865;43.312;27.152;2023-04-01T17:36:16;98913.77;;;20.55;48.74
34658;BME280;20865;43.312;27.152;2023-04-01T17:39:01;98906.88;;;20.41;49.20
34658;BME280;20865;43.312;27.152;2023-04-01T17:46:34;98900.38;;;20.38;49.51
34658;BME280;20865;43.312;27.152;2023-04-01T17:49:12;98899.30;;;20.35;49.59
34658;BME280;20865;43.312;27.152;2023-04-01T17:59:31;98856.70;;;20.21;50.03
34658;BME280;20865;43.312;27.152;2023-04-01T18:02:01;98859.63;;;20.24;50.11
34658;BME280;20865;43.312;27.152;2023-04-01T18:04:29;98886.39;;;20.23;50.32
34658;BME280;20865;43.312;27.152;2023-04-01T18:12:09;98953.80;;;20.12;50.35
34658;BME280;20865;43.312;27.152;2023-04-01T18:17:27;98955.09;;;20.28;49.89
34658;BME280;20865;43.312;27.152;2023-04-01T18:20:02;98973.12;;;19.88;50.13
34658;BME280;20865;43.312;27.152;2023-04-01T18:27:43;99043.81;;;19.70;50.87
34658;BME280;20865;43.312;27.152;2023-04-01T18:30:13;99054.44;;;19.62;51.04
34658;BME280;20865;43.312;27.152;2023-04-01T18:37:59;99041.06;;;19.55;50.60
34658;BME280;20865;43.312;27.152;2023-04-01T18:40:32;99050.78;;;19.57;50.44
34658;BME280;20865;43.312;27.152;2023-04-01T18:45:45;99090.55;;;19.57;50.96
34658;BME280;20865;43.312;27.152;2023-04-01T18:53:19;99087.10;;;19.55;51.18
34658;BME280;20865;43.312;27.152;2023-04-01T18:55:49;99073.56;;;19.55;51.27
34658;BME280;20865;43.312;27.152;2023-04-01T18:58:16;99058.14;;;19.61;51.14
34658;BME280;20865;43.312;27.152;2023-04-01T19:00:47;99063.23;;;19.54;51.08
34658;BME280;20865;43.312;27.152;2023-04-01T19:05:40;99056.78;;;19.61;50.95
34658;BME280;20865;43.312;27.152;2023-04-01T19:08:25;99070.45;;;19.65;50.93
34658;BME280;20865;43.312;27.152;2023-04-01T19:16:15;99077.97;;;19.67;50.83
34658;BME280;20865;43.312;27.152;2023-04-01T19:21:38;99057.48;;;19.74;50.49
34658;BME280;20865;43.312;27.152;2023-04-01T19:27:20;99045.16;;;19.70;50.32
34658;BME280;20865;43.312;27.152;2023-04-01T19:45:28;99071.80;;;19.59;51.24
34658;BME280;20865;43.312;27.152;2023-04-01T19:50:42;99081.28;;;19.59;50.92
34658;BME280;20865;43.312;27.152;2023-04-01T19:53:28;99093.00;;;19.60;51.03
34658;BME280;20865;43.312;27.152;2023-04-01T19:56:01;99102.36;;;19.56;51.15
34658;BME280;20865;43.312;27.152;2023-04-01T20:00:52;99105.45;;;19.57;50.97
34658;BME280;20865;43.312;27.152;2023-04-01T20:06:03;99111.83;;;19.56;50.82
34658;BME280;20865;43.312;27.152;2023-04-01T20:16:11;99117.81;;;19.44;51.15
34658;BME280;20865;43.312;27.152;2023-04-01T20:23:53;99116.81;;;19.45;51.15
34658;BME280;20865;43.312;27.152;2023-04-01T20:26:22;99123.98;;;19.46;51.07
34658;BME280;20865;43.312;27.152;2023-04-01T20:31:24;99124.48;;;19.40;51.27
34658;BME280;20865;43.312;27.152;2023-04-01T20:33:57;99115.27;;;19.37;51.25
34658;BME280;20865;43.312;27.152;2023-04-01T20:36:26;99109.61;;;19.34;51.19
34658;BME280;20865;43.312;27.152;2023-04-01T20:44:16;99127.96;;;19.31;51.00
34658;BME280;20865;43.312;27.152;2023-04-01T20:46:48;99130.92;;;19.27;50.95
34658;BME280;20865;43.312;27.152;2023-04-01T21:00:11;99128.16;;;19.18;50.89
34658;BME280;20865;43.312;27.152;2023-04-01T21:02:40;99134.54;;;19.17;50.85
34658;BME280;20865;43.312;27.152;2023-04-01T21:07:53;99139.60;;;19.10;51.01
34658;BME280;20865;43.312;27.152;2023-04-01T21:18:21;99131.48;;;19.10;50.91